Normed Antwerpen — V2DG9 — position and weather

sailwx.info

Track history (hours):
 
Tides and Currents Weather Stations Pressure Air Temp Water Temp Dewpoint Dewpoint Depression Visibility Wind Speed Wind Dir Waves Ship Positions

Normed Antwerpen

Last reported at 2016-May-03 01:15 UTC. Time now 2016-May-03 20:06 UTC.
Position N 36°52' E 013°36'.

Length 130 m; draft 6.2 m.

Type: Ship. MMSI: 305210993.

Date/timePositionNaut miles runAvg speedWind from/ knotsBaromVisibWave heightAir tempDewpointWater temp
2016-May-03 01:15N 36°52' E 013°36'7 9.5
2016-May-03 00:33N 36°50' E 013°44'1110.7
2016-May-02 23:33N 36°47' E 013°57'1111.3
2016-May-02 22:33N 36°44' E 014°11'1211.7
2016-May-02 21:33N 36°41' E 014°25'48211.8
2016-May-01 04:33N 37°50' E 024°24'  
2016-Apr-28 09:31N 39°55' E 025°53'14813.0
2016-Apr-27 22:04N 40°55' E 028°51'3 2.0
2016-Apr-27 20:28N 40°57' E 028°54'0 0.0
2016-Apr-27 18:03N 40°57' E 028°54'1 2.1
2016-Apr-27 17:33N 40°57' E 028°55'1413.6
2016-Apr-27 16:33N 40°48' E 029°08'1413.2
2016-Apr-27 15:31N 40°45' E 029°26'  
2016-Apr-25 04:23N 40°46' E 029°32'1 1.2
2016-Apr-25 03:26N 40°45' E 029°31'2 0.9
2016-Apr-25 00:32N 40°46' E 029°28'0 0.0
2016-Apr-24 22:13N 40°46' E 029°28'0 0.0
2016-Apr-24 17:29N 40°46' E 029°28'0 0.0
2016-Apr-24 12:33N 40°46' E 029°28'0 0.0
2016-Apr-24 11:08N 40°46' E 029°28'0 0.0
2016-Apr-24 10:26N 40°46' E 029°28'0 0.0
2016-Apr-24 04:05N 40°46' E 029°27'0 0.0
2016-Apr-24 02:28N 40°46' E 029°27'0 0.0
2016-Apr-24 01:04N 40°46' E 029°27'1 0.2
2016-Apr-23 18:26N 40°45' E 029°26'8 8.7
2016-Apr-23 17:33N 40°43' E 029°17'1312.5
2016-Apr-23 16:33N 40°40' E 029°00'14 5.9
2016-Apr-23 14:07N 40°26' E 029°00'  
Track history (hours):
 
Tides and Currents Weather Stations Pressure Air Temp Water Temp Dewpoint Dewpoint Depression Visibility Wind Speed Wind Dir Waves Ship Positions

Normed Antwerpen

Last reported at 2016-May-03 01:15 UTC. Time now 2016-May-03 20:06 UTC.
Position N 36°52' E 013°36'.

Length 130 m; draft 6.2 m.

Type: Ship. MMSI: 305210993.

Date/timePositionNaut miles runAvg speedWind from/ knotsBaromVisibWave heightAir tempDewpointWater temp
2016-May-03 01:15N 36°52' E 013°36'7 9.5
2016-May-03 00:33N 36°50' E 013°44'1110.7
2016-May-02 23:33N 36°47' E 013°57'1111.3
2016-May-02 22:33N 36°44' E 014°11'1211.7
2016-May-02 21:33N 36°41' E 014°25'48211.8
2016-May-01 04:33N 37°50' E 024°24'  
2016-Apr-28 09:31N 39°55' E 025°53'14813.0
2016-Apr-27 22:04N 40°55' E 028°51'3 2.0
2016-Apr-27 20:28N 40°57' E 028°54'0 0.0
2016-Apr-27 18:03N 40°57' E 028°54'1 2.1
2016-Apr-27 17:33N 40°57' E 028°55'1413.6
2016-Apr-27 16:33N 40°48' E 029°08'1413.2
2016-Apr-27 15:31N 40°45' E 029°26'  
2016-Apr-25 04:23N 40°46' E 029°32'1 1.2
2016-Apr-25 03:26N 40°45' E 029°31'2 0.9
2016-Apr-25 00:32N 40°46' E 029°28'0 0.0
2016-Apr-24 22:13N 40°46' E 029°28'0 0.0
2016-Apr-24 17:29N 40°46' E 029°28'0 0.0
2016-Apr-24 12:33N 40°46' E 029°28'0 0.0
2016-Apr-24 11:08N 40°46' E 029°28'0 0.0
2016-Apr-24 10:26N 40°46' E 029°28'0 0.0
2016-Apr-24 04:05N 40°46' E 029°27'0 0.0
2016-Apr-24 02:28N 40°46' E 029°27'0 0.0
2016-Apr-24 01:04N 40°46' E 029°27'1 0.2
2016-Apr-23 18:26N 40°45' E 029°26'8 8.7
2016-Apr-23 17:33N 40°43' E 029°17'1312.5
2016-Apr-23 16:33N 40°40' E 029°00'14 5.9
2016-Apr-23 14:07N 40°26' E 029°00'  

Dump ship's entire track history